This is the latest recevied weather packets stored in our database for station/object LRSV. If no packets are shown the sender has not sent any weather packets the latest 10 day(s).
| Time | Temp. | Humidity | Pressure | Rain* | Wind** | Luminosity | Snow |
|---|---|---|---|---|---|---|---|
| 1777783700 | 5° C | 76% | 1022 hPa | - | - | - | - |
| 1777782801 | 5° C | 76% | 1022 hPa | - | - | - | - |
| 1777781900 | 5° C | 70% | 1022 hPa | - | - | - | - |
| 1777781023 | 5° C | 70% | 1022 hPa | - | - | - | - |
| 1777780102 | 3.89° C | 70% | 1022 hPa | - | - | - | - |
| 1777779200 | 3.89° C | 70% | 1022 hPa | - | - | - | - |
| 1777778300 | 2.78° C | 75% | 1021 hPa | - | - | - | - |
| 1777777400 | 2.78° C | 75% | 1021 hPa | - | - | - | - |
| 1777776515 | 5° C | 66% | 1021 hPa | - | - | - | - |
| 1777775601 | 5° C | 66% | 1021 hPa | - | - | - | - |
| 1777774700 | 5° C | 66% | 1021 hPa | - | - | - | - |
| 1777773800 | 5° C | 66% | 1021 hPa | - | - | - | - |
| 1777767500 | 3.89° C | 70% | 1022 hPa | - | - | - | - |
| 1777766600 | 3.89° C | 70% | 1022 hPa | - | - | - | - |
| 1777764800 | 3.89° C | 70% | 1022 hPa | - | - | - | - |
| 1777763901 | 3.89° C | 75% | 1022 hPa | - | - | - | - |
| 1777761200 | 6.11° C | 61% | 1022 hPa | - | - | - | - |
| 1777759400 | 3.89° C | 75% | 1022 hPa | - | - | - | - |
| 1777758500 | 5° C | 66% | 1023 hPa | - | - | - | - |
| 1777757601 | 5° C | 66% | 1023 hPa | - | - | - | - |
| 1777751300 | 7.22° C | 57% | 1023 hPa | - | - | - | - |
| 1777749500 | 7.78° C | 53% | 1023 hPa | - | - | - | - |
| 1777745901 | 8.89° C | 50% | 1022 hPa | - | - | - | - |
| 1777745000 | 8.89° C | 50% | 1022 hPa | - | - | - | - |
| 1777744100 | 8.89° C | 54% | 1022 hPa | - | - | - | - |
* Rain since midnight (hover to see other rain measurements)
** Current wind speed in m/s (hover to see current wind gust speed)